createdAt,value
2018-09-25T00:08:29.537Z,56.8
2018-09-25T00:18:43.146Z,56.1
2018-09-25T00:29:27.801Z,55.7
2018-09-25T00:39:41.972Z,55.6
2018-09-25T00:49:56.205Z,55.7
2018-09-25T01:00:10.278Z,55.6
2018-09-25T01:10:24.920Z,54.8
2018-09-25T01:20:41.605Z,54.6
2018-09-25T01:30:55.623Z,54.9
2018-09-25T01:41:09.226Z,55.0
2018-09-25T01:51:23.956Z,54.3
2018-09-25T02:01:39.859Z,54.0
2018-09-25T02:11:54.566Z,53.7
2018-09-25T02:22:08.405Z,53.7
2018-09-25T02:33:20.747Z,53.8
2018-09-25T02:43:34.603Z,53.3
2018-09-25T02:54:24.747Z,53.8
2018-09-25T03:05:10.501Z,53.6
2018-09-25T03:59:22.028Z,53.2
2018-09-25T04:15:14.784Z,52.9
2018-09-25T04:25:28.358Z,52.3
2018-09-25T04:35:42.847Z,52.8
2018-09-25T05:23:30.467Z,53.7
2018-09-25T06:01:48.406Z,54.3
2018-09-25T06:12:00.515Z,55.0
2018-09-25T06:48:38.088Z,56.5
2018-09-25T07:02:44.335Z,57.5
2018-09-25T07:13:17.332Z,58.7
2018-09-25T07:27:17.584Z,60.4
2018-09-25T07:53:08.421Z,54.2
2018-09-25T08:18:35.835Z,45.1
2018-09-25T08:28:50.171Z,42.1
2018-09-25T08:39:34.679Z,40.0
2018-09-25T14:58:49.377Z,38.8
2018-09-25T15:09:07.111Z,39.5
2018-09-25T15:19:21.595Z,39.6
2018-09-25T15:29:48.700Z,40.3
2018-09-25T15:40:10.315Z,40.8
2018-09-25T15:51:12.021Z,40.2
2018-09-25T16:02:01.357Z,40.2
2018-09-25T16:12:31.175Z,40.2
2018-09-25T16:22:46.180Z,40.2
2018-09-25T16:33:00.091Z,40.7
2018-09-25T16:43:14.471Z,41.4
2018-09-25T16:53:28.767Z,42.5
2018-09-25T17:14:39.660Z,44.0
2018-09-25T17:24:53.567Z,44.5
2018-09-25T17:35:08.018Z,44.6
2018-09-25T17:45:52.449Z,45.4
2018-09-25T17:56:20.195Z,45.6
2018-09-25T18:16:07.870Z,46.3
2018-09-25T18:28:44.332Z,46.3
2018-09-25T18:41:46.107Z,46.9
2018-09-25T18:56:45.057Z,47.1
2018-09-25T19:08:37.769Z,48.4
2018-09-25T19:20:56.917Z,49.2
2018-09-25T19:32:35.293Z,48.9
2018-09-25T19:56:04.683Z,50.1
2018-09-25T20:06:17.874Z,50.1
2018-09-25T20:16:30.057Z,50.5
2018-09-25T20:26:44.210Z,51.2
2018-09-25T20:36:58.561Z,51.6
2018-09-25T20:47:12.800Z,51.5
2018-09-25T20:57:24.990Z,52.1
2018-09-25T21:07:39.547Z,51.8
2018-09-25T21:18:24.244Z,51.6
2018-09-25T21:29:08.897Z,51.8
2018-09-25T21:39:22.991Z,51.7
2018-09-25T22:03:34.542Z,50.9
2018-09-25T22:13:49.166Z,50.8
2018-09-25T22:24:03.632Z,50.4
2018-09-25T22:34:17.284Z,50.4
2018-09-25T22:44:31.681Z,50.4
2018-09-25T22:54:46.056Z,50.6
2018-09-25T23:05:00.090Z,50.6
2018-09-25T23:15:14.485Z,50.4
2018-09-25T23:25:58.886Z,50.4
2018-09-25T23:36:10.478Z,50.2
2018-09-25T23:46:55.987Z,50.4
2018-09-25T23:57:10.165Z,50.3
